| time (UTC) | temp F | wind direction | speed MPH | gust MPH | rain 1hr in | rain 24hr in | rain mn in | humidity % | barometer mb |
| 20260508114505 | 49 | 196 | 0.0 | 0.0 | 0.01 | 0.43 | 0.01 | 95 | 1016.8 |
| 20260508113115 | 48 | 184 | 0.0 | 2.0 | 0.01 | 0.43 | 0.01 | 94 | 1016.6 |
| 20260508111603 | 47 | 174 | 0.0 | 1.0 | 0.01 | 0.43 | 0.01 | 94 | 1016.4 |
| 20260508110100 | 47 | 302 | 0.0 | 2.0 | 0.00 | 0.42 | 0.00 | 94 | 1016.2 |
| 20260508104553 | 47 | 275 | 1.0 | 3.0 | 0.00 | 0.42 | 0.00 | 94 | 1015.6 |
| 20260508103049 | 46 | 26 | 0.0 | 0.0 | 0.00 | 0.42 | 0.00 | 93 | 1015.4 |
| 20260508101549 | 46 | 26 | 0.0 | 0.0 | 0.00 | 0.42 | 0.00 | 93 | 1015.2 |
| 20260508100046 | 47 | 26 | 0.0 | 0.0 | 0.00 | 0.42 | 0.00 | 93 | 1015.2 |
| 20260508094545 | 47 | 26 | 0.0 | 0.0 | 0.00 | 0.44 | 0.00 | 93 | 1015.1 |
| 20260508093047 | 47 | 26 | 0.0 | 0.0 | 0.00 | 0.44 | 0.00 | 93 | 1015.0 |
| 20260508091549 | 47 | 26 | 0.0 | 0.0 | 0.00 | 0.44 | 0.00 | 93 | 1014.7 |
| 20260508090042 | 47 | 26 | 0.0 | 0.0 | 0.00 | 0.44 | 0.00 | 93 | 1014.7 |
| 20260508084537 | 48 | 26 | 0.0 | 0.0 | 0.00 | 0.45 | 0.00 | 93 | 1014.5 |
| 20260508083037 | 48 | 26 | 0.0 | 0.0 | 0.00 | 0.45 | 0.00 | 93 | 1014.4 |
| 20260508081533 | 49 | 26 | 0.0 | 0.0 | 0.00 | 0.45 | 0.00 | 93 | 1014.3 |
| 20260508080035 | 49 | 26 | 0.0 | 0.0 | 0.00 | 0.45 | 0.00 | 93 | 1014.1 |
| 20260508074531 | 49 | 26 | 0.0 | 0.0 | 0.00 | 0.50 | 0.00 | 93 | 1014.0 |
| 20260508073027 | 50 | 26 | 0.0 | 0.0 | 0.00 | 0.50 | 0.00 | 92 | 1013.9 |
| 20260508071530 | 50 | 26 | 0.0 | 0.0 | 0.00 | 0.50 | 0.00 | 93 | 1013.8 |
| 20260508070023 | 51 | 26 | 0.0 | 0.0 | 0.00 | 0.50 | 0.00 | 93 | 1013.7 |
| 20260508064521 | 51 | 26 | 0.0 | 0.0 | 0.00 | 0.63 | 0.00 | 93 | 1013.7 |
| 20260508063020 | 51 | 26 | 0.0 | 0.0 | 0.00 | 0.63 | 0.00 | 93 | 1013.7 |
| 20260508061521 | 52 | 26 | 0.0 | 0.0 | 0.00 | 0.63 | 0.00 | 93 | 1013.9 |
| 20260508060018 | 52 | 26 | 0.0 | 0.0 | 0.00 | 0.63 | 0.00 | 93 | 1013.7 |
| 20260508054514 | 52 | 26 | 0.0 | 0.0 | 0.00 | 0.69 | 0.00 | 93 | 1013.6 |
| 20260508053013 | 53 | 26 | 0.0 | 0.0 | 0.00 | 0.69 | 0.00 | 93 | 1013.6 |
| 20260508051510 | 53 | 26 | 0.0 | 0.0 | 0.00 | 0.69 | 0.00 | 93 | 1013.5 |
| 20260508050012 | 54 | 26 | 0.0 | 0.0 | 0.00 | 0.69 | 0.00 | 93 | 1013.4 |
| 20260508044506 | 54 | 26 | 0.0 | 0.0 | 0.00 | 0.72 | 0.00 | 93 | 1013.2 |
| 20260508043007 | 54 | 26 | 0.0 | 0.0 | 0.00 | 0.72 | 0.00 | 93 | 1013.3 |
| 20260508041504 | 55 | 26 | 0.0 | 0.0 | 0.00 | 0.72 | 0.00 | 93 | 1013.2 |
| 20260508040008 | 55 | 26 | 0.0 | 0.0 | 0.00 | 0.72 | 0.00 | 93 | 1013.0 |
| 20260508034600 | 55 | 26 | 0.0 | 0.0 | 0.00 | 0.93 | 0.72 | 93 | 1013.0 |
| 20260508033059 | 55 | 26 | 0.0 | 0.0 | 0.00 | 0.93 | 0.72 | 93 | 1013.0 |
| 20260508031556 | 55 | 26 | 0.0 | 0.0 | 0.00 | 0.93 | 0.72 | 93 | 1013.0 |
| 20260508030055 | 56 | 26 | 0.0 | 0.0 | 0.00 | 0.93 | 0.72 | 93 | 1012.8 |
| 20260508024557 | 56 | 26 | 0.0 | 0.0 | 0.00 | 1.05 | 0.72 | 93 | 1012.7 |
| 20260508023050 | 57 | 26 | 0.0 | 0.0 | 0.00 | 1.05 | 0.72 | 93 | 1012.5 |
| 20260508021551 | 57 | 26 | 0.0 | 0.0 | 0.00 | 1.05 | 0.72 | 93 | 1012.1 |
| 20260508020047 | 57 | 26 | 0.0 | 0.0 | 0.00 | 1.05 | 0.72 | 93 | 1012.1 |
| 20260508014546 | 57 | 26 | 0.0 | 0.0 | 0.00 | 1.07 | 0.72 | 93 | 1011.7 |
| 20260508013046 | 58 | 26 | 0.0 | 0.0 | 0.00 | 1.07 | 0.72 | 93 | 1011.8 |
| 20260508011546 | 57 | 26 | 0.0 | 0.0 | 0.00 | 1.07 | 0.72 | 93 | 1011.3 |
| 20260508010044 | 57 | 26 | 0.0 | 2.0 | 0.00 | 1.07 | 0.72 | 93 | 1011.1 |
| 20260508004546 | 57 | 26 | 0.0 | 7.0 | 0.00 | 1.07 | 0.72 | 93 | 1010.4 |
| 20260508003043 | 58 | 49 | 0.0 | 4.0 | 0.00 | 1.07 | 0.72 | 92 | 1010.3 |
| 20260508001542 | 58 | 80 | 1.0 | 5.0 | 0.00 | 1.07 | 0.72 | 92 | 1009.9 |
| 20260508000040 | 58 | 44 | 0.0 | 10.0 | 0.00 | 1.07 | 0.72 | 92 | 1009.3 |
| 20260507234518 | 58 | 40 | 2.0 | 9.0 | 0.02 | 1.07 | 0.72 | 92 | 1009.9 |
| 20260507233028 | 58 | 86 | 4.0 | 7.0 | 0.05 | 1.07 | 0.72 | 91 | 1009.2 |
| 20260507231515 | 59 | 72 | 4.0 | 9.0 | 0.09 | 1.07 | 0.72 | 91 | 1009.0 |
| 20260507230013 | 59 | 89 | 1.0 | 12.0 | 0.09 | 1.06 | 0.71 | 91 | 1008.9 |
| 20260507224511 | 60 | 92 | 2.0 | 5.0 | 0.08 | 1.05 | 0.70 | 91 | 1009.3 |
| 20260507223011 | 60 | 107 | 0.0 | 10.0 | 0.08 | 1.02 | 0.67 | 90 | 1009.1 |
| 20260507221516 | 60 | 41 | 3.0 | 9.0 | 0.09 | 0.98 | 0.63 | 89 | 1008.3 |
| 20260507220010 | 61 | 24 | 6.0 | 13.0 | 0.08 | 0.97 | 0.62 | 88 | 1007.9 |
| 20260507214503 | 62 | 67 | 3.0 | 15.0 | 0.08 | 0.97 | 0.62 | 87 | 1007.3 |
| 20260507213108 | 64 | 92 | 4.0 | 16.0 | 0.05 | 0.94 | 0.59 | 84 | 1007.4 |
| 20260507211617 | 66 | 71 | 2.0 | 9.0 | 0.00 | 0.89 | 0.54 | 80 | 1007.4 |
| 20260507210056 | 69 | 45 | 4.0 | 14.0 | 0.00 | 0.89 | 0.54 | 76 | 1007.5 |
| 20260507204606 | 73 | 129 | 6.0 | 17.0 | 0.00 | 0.89 | 0.54 | 73 | 1007.0 |
| 20260507203100 | 76 | 282 | 0.0 | 5.0 | 0.00 | 0.89 | 0.54 | 74 | 1006.3 |
| 20260507201553 | 77 | 217 | 2.0 | 5.0 | 0.00 | 0.89 | 0.54 | 75 | 1005.9 |
| 20260507201517 | 76 | 18 | 1.0 | 5.0 | 0.00 | 0.89 | 0.54 | 74 | 1006.0 |
| 20260507200051 | 77 | 221 | 1.0 | 6.0 | 0.00 | 0.89 | 0.54 | 81 | 1006.1 |
| 20260507194617 | 76 | 190 | 0.0 | 6.0 | 0.00 | 0.89 | 0.54 | 75 | 1006.4 |
| 20260507193046 | 75 | 217 | 1.0 | 5.0 | 0.00 | 0.89 | 0.54 | 80 | 1006.6 |
| 20260507191547 | 74 | 340 | 0.0 | 4.0 | 0.00 | 0.89 | 0.54 | 82 | 1006.9 |
| 20260507190041 | 74 | 355 | 1.0 | 6.0 | 0.00 | 0.89 | 0.54 | 86 | 1007.1 |
| 20260507184543 | 72 | 309 | 1.0 | 5.0 | 0.00 | 0.98 | 0.54 | 85 | 1007.0 |
| 20260507183039 | 73 | 317 | 1.0 | 6.0 | 0.00 | 0.98 | 0.54 | 88 | 1007.1 |
| 20260507181533 | 71 | 262 | 0.0 | 6.0 | 0.00 | 0.98 | 0.54 | 92 | 1007.5 |
| 20260507180040 | 69 | 300 | 3.0 | 7.0 | 0.00 | 0.98 | 0.54 | 92 | 1007.7 |
| 20260507174631 | 70 | 290 | 1.0 | 4.0 | 0.00 | 1.15 | 0.54 | 93 | 1007.6 |
| 20260507173052 | 69 | 302 | 1.0 | 6.0 | 0.00 | 1.15 | 0.54 | 92 | 1007.9 |
| 20260507171509 | 70 | 290 | 1.0 | 6.0 | 0.00 | 1.15 | 0.54 | 93 | 1008.0 |
| 20260507170111 | 69 | 244 | 0.0 | 1.0 | 0.00 | 1.15 | 0.54 | 95 | 1007.6 |
| 20260507164522 | 69 | 286 | 0.0 | 5.0 | 0.00 | 1.15 | 0.54 | 95 | 1008.1 |
| 20260507163115 | 68 | 301 | 3.0 | 7.0 | 0.00 | 1.15 | 0.54 | 94 | 1008.5 |
| 20260507161545 | 69 | 288 | 0.0 | 5.0 | 0.02 | 1.15 | 0.54 | 95 | 1007.5 |
| 20260507160132 | 69 | 121 | 0.0 | 2.0 | 0.02 | 1.15 | 0.54 | 96 | 1007.1 |
| 20260507154559 | 69 | 17 | 0.0 | 1.0 | 0.03 | 1.15 | 0.54 | 96 | 1007.2 |
| 20260507153019 | 68 | 17 | 0.0 | 1.0 | 0.03 | 1.14 | 0.53 | 96 | 1007.8 |
| 20260507151605 | 68 | 316 | 0.0 | 3.0 | 0.02 | 1.13 | 0.52 | 96 | 1008.5 |
| 20260507150027 | 67 | 326 | 1.0 | 5.0 | 0.02 | 1.13 | 0.52 | 96 | 1009.1 |
| 20260507144622 | 68 | 211 | 0.0 | 2.0 | 0.02 | 1.12 | 0.51 | 96 | 1009.3 |
| 20260507143038 | 68 | 186 | 0.0 | 2.0 | 0.02 | 1.12 | 0.50 | 96 | 1008.7 |
| 20260507141633 | 68 | 140 | 0.0 | 4.0 | 0.04 | 1.12 | 0.50 | 96 | 1008.6 |
| 20260507140049 | 67 | 155 | 1.0 | 4.0 | 0.08 | 1.12 | 0.50 | 96 | 1008.1 |
| 20260507134629 | 67 | 207 | 0.0 | 0.0 | 0.11 | 1.11 | 0.49 | 96 | 1008.6 |
| 20260507133043 | 67 | 277 | 0.0 | 0.0 | 0.14 | 1.10 | 0.48 | 96 | 1008.4 |
| 20260507131515 | 66 | 279 | 0.0 | 3.0 | 0.14 | 1.08 | 0.46 | 96 | 1008.7 |
| 20260507130103 | 66 | 328 | 0.0 | 5.0 | 0.10 | 1.04 | 0.42 | 96 | 1009.0 |
| 20260507124521 | 66 | 331 | 0.0 | 5.0 | 0.07 | 1.00 | 0.38 | 96 | 1009.3 |
| 20260507123016 | 66 | 309 | 1.0 | 6.0 | 0.04 | 0.96 | 0.34 | 96 | 1009.9 |
| 20260507121514 | 66 | 300 | 0.0 | 0.0 | 0.02 | 0.94 | 0.32 | 96 | 1009.0 |
| 20260507120020 | 66 | 26 | 0.0 | 0.0 | 0.02 | 0.94 | 0.32 | 96 | 1008.9 |